createdAt,value
2022-09-25T00:09:11.162Z,39.80
2022-09-25T00:14:18.317Z,44.10
2022-09-25T00:19:49.250Z,40.30
2022-09-25T00:24:58.332Z,40.00
2022-09-25T00:30:06.720Z,42.90
2022-09-25T00:35:21.005Z,41.40
2022-09-25T00:40:31.751Z,41.60
2022-09-25T00:45:43.544Z,41.10
2022-09-25T00:50:54.569Z,34.40
2022-09-25T00:56:06.276Z,35.20
2022-09-25T01:01:15.940Z,38.00
2022-09-25T01:06:28.430Z,45.10
2022-09-25T01:11:40.777Z,43.10
2022-09-25T01:16:54.103Z,39.90
2022-09-25T01:22:08.329Z,41.20
2022-09-25T01:27:35.388Z,36.10
2022-09-25T01:32:58.790Z,37.20
2022-09-25T01:38:15.503Z,37.90
2022-09-25T01:43:27.972Z,41.00
2022-09-25T01:48:39.816Z,41.30
2022-09-25T01:53:54.061Z,44.90
2022-09-25T01:59:11.273Z,40.20
2022-09-25T02:04:23.487Z,34.20
2022-09-25T02:09:34.090Z,43.80
2022-09-25T02:14:47.410Z,40.60
2022-09-25T02:20:12.030Z,40.40
2022-09-25T02:25:33.617Z,39.40
2022-09-25T02:30:44.579Z,39.80
2022-09-25T02:35:51.958Z,37.10
2022-09-25T02:41:04.992Z,39.40
2022-09-25T02:46:22.646Z,43.40
2022-09-25T02:51:36.399Z,35.30
2022-09-25T02:56:49.257Z,39.80
2022-09-25T03:01:59.060Z,42.60
2022-09-25T03:07:07.633Z,36.80
2022-09-25T03:12:16.595Z,38.20
2022-09-25T03:17:28.766Z,33.60
2022-09-25T03:22:38.606Z,40.30
2022-09-25T03:27:49.484Z,40.70
2022-09-25T03:32:56.465Z,38.20
2022-09-25T03:38:03.626Z,39.50
2022-09-25T03:48:15.255Z,43.20
2022-09-25T03:58:28.027Z,35.20
2022-09-25T04:08:42.109Z,34.70
2022-09-25T04:13:49.437Z,38.40
2022-09-25T04:18:56.605Z,37.70
2022-09-25T04:29:28.208Z,36.20
2022-09-25T04:34:35.537Z,32.50
2022-09-25T04:39:42.615Z,37.90
2022-09-25T04:44:49.491Z,34.50
2022-09-25T04:49:56.494Z,36.10
2022-09-25T04:55:03.899Z,34.50
2022-09-25T05:00:19.464Z,34.50
2022-09-25T05:05:28.545Z,39.90
2022-09-25T05:10:36.158Z,37.50
2022-09-25T05:15:44.447Z,36.00
2022-09-25T05:20:54.912Z,38.70
2022-09-25T05:26:02.764Z,33.90
2022-09-25T05:31:11.127Z,33.30
2022-09-25T05:36:19.110Z,34.10
2022-09-25T05:41:26.829Z,33.30
2022-09-25T05:46:33.852Z,33.40
2022-09-25T05:51:40.793Z,32.10
2022-09-25T06:01:54.044Z,33.10
2022-09-25T06:07:02.924Z,30.00
2022-09-25T06:12:09.912Z,34.30
2022-09-25T06:17:16.756Z,32.40
2022-09-25T06:22:23.546Z,38.00
2022-09-25T06:27:31.573Z,38.30
2022-09-25T06:32:38.360Z,44.70
2022-09-25T06:43:30.470Z,42.90
2022-09-25T06:48:37.766Z,42.40
2022-09-25T06:58:53.581Z,46.00
2022-09-25T07:04:01.951Z,46.70
2022-09-25T07:09:08.950Z,49.90
2022-09-25T07:14:16.430Z,45.20
2022-09-25T07:19:27.648Z,41.70
2022-09-25T07:24:35.229Z,39.10
2022-09-25T07:29:42.161Z,36.60
2022-09-25T07:39:57.409Z,36.70
2022-09-25T07:45:05.299Z,41.50
2022-09-25T07:50:15.528Z,36.80
2022-09-25T07:55:23.899Z,37.60
2022-09-25T08:00:31.093Z,34.80
2022-09-25T08:05:38.430Z,30.90
2022-09-25T08:10:45.601Z,30.90
2022-09-25T08:15:53.151Z,36.10
2022-09-25T08:21:06.160Z,32.30
2022-09-25T08:26:13.391Z,33.60
2022-09-25T08:31:21.759Z,33.80
2022-09-25T08:36:28.786Z,25.70
2022-09-25T08:41:47.740Z,24.00
2022-09-25T08:47:19.529Z,26.70
2022-09-25T08:52:27.342Z,19.70
2022-09-25T08:57:40.978Z,19.60
2022-09-25T09:02:53.415Z,13.60
2022-09-25T09:08:04.917Z,19.40
2022-09-25T09:13:21.860Z,14.20
2022-09-25T09:18:30.434Z,14.00
2022-09-25T09:23:44.651Z,17.80
2022-09-25T09:29:27.917Z,15.00
2022-09-25T09:35:04.794Z,16.70
2022-09-25T09:45:39.751Z,18.10
2022-09-25T09:50:52.801Z,18.30
2022-09-25T09:56:09.028Z,15.10
2022-09-25T10:01:40.391Z,13.00
2022-09-25T10:06:52.186Z,14.20
2022-09-25T10:12:05.156Z,11.40
2022-09-25T10:17:13.351Z,14.30
2022-09-25T10:22:26.375Z,19.70
2022-09-25T10:27:36.767Z,16.10
2022-09-25T10:32:52.351Z,23.90
2022-09-25T10:38:05.496Z,21.20
2022-09-25T10:43:23.947Z,19.90
2022-09-25T10:48:52.841Z,18.20
2022-09-25T10:54:16.911Z,22.80
2022-09-25T10:59:25.380Z,21.20
2022-09-25T11:04:34.644Z,20.00
2022-09-25T11:09:46.738Z,22.90
2022-09-25T11:15:01.925Z,18.60
2022-09-25T11:20:29.969Z,16.80
2022-09-25T11:25:55.055Z,18.10
2022-09-25T11:31:13.526Z,20.50
2022-09-25T11:36:33.454Z,14.30
2022-09-25T11:41:47.669Z,19.10
2022-09-25T11:47:05.963Z,14.70
2022-09-25T11:52:41.447Z,16.70
2022-09-25T12:05:31.676Z,12.60
2022-09-25T12:10:50.851Z,15.10
2022-09-25T12:16:10.331Z,14.80
2022-09-25T12:21:23.072Z,18.20
2022-09-25T12:26:38.093Z,17.60
2022-09-25T12:31:55.376Z,12.80
2022-09-25T12:37:16.265Z,11.90
2022-09-25T12:42:31.088Z,13.20
2022-09-25T12:47:46.363Z,14.20
2022-09-25T12:53:14.537Z,14.60
2022-09-25T12:58:32.400Z,15.00
2022-09-25T13:03:47.675Z,14.40
2022-09-25T13:09:02.475Z,13.30
2022-09-25T13:14:30.813Z,13.00
2022-09-25T13:19:37.941Z,10.30
2022-09-25T13:24:50.988Z,11.30
2022-09-25T13:30:02.206Z,11.80
2022-09-25T13:35:19.748Z,13.10
2022-09-25T13:47:36.918Z,11.90
2022-09-25T13:53:33.602Z,13.80
2022-09-25T13:59:16.822Z,11.40
2022-09-25T14:04:38.874Z,18.10
2022-09-25T14:09:50.509Z,11.40
2022-09-25T14:15:02.128Z,12.30
2022-09-25T14:20:36.762Z,16.20
2022-09-25T14:25:47.097Z,14.30
2022-09-25T14:31:14.490Z,12.10
2022-09-25T14:36:35.260Z,13.00
2022-09-25T14:42:06.038Z,13.80
2022-09-25T14:47:16.031Z,13.50
2022-09-25T14:52:28.812Z,10.20
2022-09-25T14:57:39.862Z,14.10
2022-09-25T15:02:50.580Z,14.50
2022-09-25T15:08:02.303Z,18.10
2022-09-25T15:13:16.016Z,16.20
2022-09-25T15:18:23.655Z,14.20
2022-09-25T15:23:34.902Z,20.80
2022-09-25T15:28:44.411Z,22.00
2022-09-25T15:34:12.546Z,19.50
2022-09-25T15:39:23.677Z,21.00
2022-09-25T15:44:32.452Z,24.90
2022-09-25T15:49:43.112Z,24.30
2022-09-25T15:54:50.388Z,24.50
2022-09-25T16:00:23.419Z,29.60
2022-09-25T16:05:35.785Z,22.50
2022-09-25T16:10:46.418Z,22.60
2022-09-25T16:15:57.922Z,27.30
2022-09-25T16:21:20.329Z,26.20
2022-09-25T16:26:37.184Z,21.10
2022-09-25T16:31:45.997Z,21.20
2022-09-25T16:36:54.942Z,22.80
2022-09-25T16:42:27.131Z,22.90
2022-09-25T16:47:35.316Z,30.10
2022-09-25T16:52:43.386Z,26.90
2022-09-25T16:57:50.536Z,25.80
2022-09-25T17:02:58.478Z,29.70
2022-09-25T17:08:19.356Z,30.80
2022-09-25T17:13:31.359Z,27.50
2022-09-25T17:18:38.920Z,29.20
2022-09-25T17:23:47.774Z,27.80
2022-09-25T17:28:55.610Z,28.30
2022-09-25T17:34:03.320Z,26.60
2022-09-25T17:39:10.383Z,33.50
2022-09-25T17:44:23.721Z,29.00
2022-09-25T17:49:31.384Z,29.80
2022-09-25T17:54:38.563Z,25.20
2022-09-25T17:59:46.239Z,32.80
2022-09-25T18:04:53.598Z,30.60
2022-09-25T18:10:00.695Z,32.80
2022-09-25T18:15:11.679Z,29.80
2022-09-25T18:20:39.456Z,25.50
2022-09-25T18:25:46.757Z,33.80
2022-09-25T18:30:54.117Z,30.90
2022-09-25T18:36:03.825Z,30.20
2022-09-25T18:41:11.021Z,28.70
2022-09-25T18:46:18.966Z,29.30
2022-09-25T18:51:26.449Z,35.80
2022-09-25T18:56:34.834Z,31.20
2022-09-25T19:01:42.707Z,29.90
2022-09-25T19:06:50.265Z,28.50
2022-09-25T19:11:57.637Z,31.90
2022-09-25T19:17:05.431Z,29.70
2022-09-25T19:22:18.867Z,31.10
2022-09-25T19:27:29.264Z,30.70
2022-09-25T19:32:36.841Z,32.80
2022-09-25T19:37:43.779Z,33.20
2022-09-25T19:42:50.831Z,35.30
2022-09-25T19:47:58.442Z,33.70
2022-09-25T19:53:06.086Z,34.70
2022-09-25T19:58:14.383Z,33.10
2022-09-25T20:03:23.837Z,33.50
2022-09-25T20:08:31.246Z,33.20
2022-09-25T20:13:38.814Z,34.00
2022-09-25T20:18:48.773Z,35.10
2022-09-25T20:23:58.500Z,34.70
2022-09-25T20:39:21.772Z,31.20
2022-09-25T20:44:28.923Z,41.60
2022-09-25T20:49:35.906Z,42.30
2022-09-25T20:54:43.575Z,39.10
2022-09-25T20:59:50.368Z,37.00
2022-09-25T21:10:04.493Z,37.30
2022-09-25T21:15:13.040Z,41.80
2022-09-25T21:20:20.515Z,42.60
2022-09-25T21:25:29.313Z,39.40
2022-09-25T21:39:56.808Z,51.40
2022-09-25T21:45:01.259Z,45.00
2022-09-25T21:50:06.376Z,42.20
2022-09-25T21:55:11.864Z,43.50
2022-09-25T22:00:16.657Z,50.00
2022-09-25T22:05:23.005Z,47.30
2022-09-25T22:10:27.003Z,45.70
2022-09-25T22:15:30.855Z,46.10
2022-09-25T22:20:38.433Z,48.50
2022-09-25T22:25:41.987Z,46.10
2022-09-25T22:30:46.409Z,39.70
2022-09-25T22:35:59.777Z,54.20
2022-09-25T22:41:05.811Z,56.50
2022-09-25T22:46:11.446Z,53.60
2022-09-25T22:51:17.187Z,54.90
2022-09-25T22:56:23.426Z,59.70
2022-09-25T23:01:30.281Z,58.00
2022-09-25T23:06:35.397Z,53.10
2022-09-25T23:11:39.079Z,53.30
2022-09-25T23:16:43.479Z,51.10
2022-09-25T23:21:48.110Z,50.10
2022-09-25T23:26:52.584Z,51.00
2022-09-25T23:31:56.410Z,47.50
2022-09-25T23:37:00.034Z,54.90
2022-09-25T23:42:03.867Z,51.50
2022-09-25T23:47:07.316Z,48.00
2022-09-25T23:52:10.968Z,52.20
2022-09-25T23:57:14.686Z,52.80
